sensor_id;sensor_type;location;lat;lon;timestamp;P1;durP1;ratioP1;P2;durP2;ratioP2
79533;SDS011;68982;52.160;6.736;2023-05-10T00:00:20;3.35;;;2.30;;
79533;SDS011;68982;52.160;6.736;2023-05-10T00:02:47;4.68;;;2.47;;
79533;SDS011;68982;52.160;6.736;2023-05-10T00:05:13;3.45;;;2.33;;
79533;SDS011;68982;52.160;6.736;2023-05-10T00:07:38;3.97;;;2.53;;
79533;SDS011;68982;52.160;6.736;2023-05-10T00:10:04;3.50;;;2.55;;
79533;SDS011;68982;52.160;6.736;2023-05-10T00:12:29;3.53;;;2.55;;
79533;SDS011;68982;52.160;6.736;2023-05-10T00:14:55;4.40;;;2.60;;
79533;SDS011;68982;52.160;6.736;2023-05-10T00:17:20;3.57;;;2.70;;
79533;SDS011;68982;52.160;6.736;2023-05-10T00:19:45;4.03;;;3.03;;
79533;SDS011;68982;52.160;6.736;2023-05-10T00:22:11;4.53;;;3.50;;
79533;SDS011;68982;52.160;6.736;2023-05-10T00:24:36;4.97;;;3.35;;
79533;SDS011;68982;52.160;6.736;2023-05-10T00:27:01;5.27;;;3.10;;
79533;SDS011;68982;52.160;6.736;2023-05-10T00:29:29;4.60;;;3.05;;
79533;SDS011;68982;52.160;6.736;2023-05-10T00:31:54;5.65;;;3.47;;
79533;SDS011;68982;52.160;6.736;2023-05-10T00:34:19;5.75;;;3.65;;
79533;SDS011;68982;52.160;6.736;2023-05-10T00:36:45;5.53;;;3.80;;
79533;SDS011;68982;52.160;6.736;2023-05-10T00:39:10;7.23;;;3.60;;
79533;SDS011;68982;52.160;6.736;2023-05-10T00:41:35;5.40;;;3.45;;
79533;SDS011;68982;52.160;6.736;2023-05-10T00:44:01;5.07;;;4.10;;
79533;SDS011;68982;52.160;6.736;2023-05-10T00:46:27;5.20;;;3.78;;
79533;SDS011;68982;52.160;6.736;2023-05-10T00:48:53;5.13;;;3.67;;
79533;SDS011;68982;52.160;6.736;2023-05-10T00:51:18;5.50;;;3.92;;
79533;SDS011;68982;52.160;6.736;2023-05-10T00:53:45;5.80;;;3.55;;
79533;SDS011;68982;52.160;6.736;2023-05-10T00:56:11;5.65;;;3.95;;
79533;SDS011;68982;52.160;6.736;2023-05-10T00:58:38;8.27;;;4.28;;
79533;SDS011;68982;52.160;6.736;2023-05-10T01:01:04;7.28;;;4.18;;
79533;SDS011;68982;52.160;6.736;2023-05-10T01:03:31;5.88;;;4.32;;
79533;SDS011;68982;52.160;6.736;2023-05-10T01:05:57;6.63;;;4.05;;
79533;SDS011;68982;52.160;6.736;2023-05-10T01:08:22;4.90;;;3.40;;
79533;SDS011;68982;52.160;6.736;2023-05-10T01:10:47;5.57;;;3.85;;
79533;SDS011;68982;52.160;6.736;2023-05-10T01:13:15;6.00;;;4.28;;
79533;SDS011;68982;52.160;6.736;2023-05-10T01:15:48;5.28;;;4.10;;
79533;SDS011;68982;52.160;6.736;2023-05-10T01:18:14;6.13;;;4.35;;
79533;SDS011;68982;52.160;6.736;2023-05-10T01:20:43;6.13;;;4.13;;
79533;SDS011;68982;52.160;6.736;2023-05-10T01:26:14;5.93;;;4.05;;
79533;SDS011;68982;52.160;6.736;2023-05-10T01:29:08;5.57;;;3.53;;
79533;SDS011;68982;52.160;6.736;2023-05-10T01:34:32;4.70;;;3.13;;
79533;SDS011;68982;52.160;6.736;2023-05-10T01:37:09;5.50;;;3.90;;
79533;SDS011;68982;52.160;6.736;2023-05-10T01:42:21;5.32;;;3.50;;
79533;SDS011;68982;52.160;6.736;2023-05-10T01:45:13;5.45;;;3.30;;
79533;SDS011;68982;52.160;6.736;2023-05-10T01:47:44;5.35;;;3.55;;
79533;SDS011;68982;52.160;6.736;2023-05-10T01:50:18;5.50;;;3.92;;
79533;SDS011;68982;52.160;6.736;2023-05-10T01:52:50;6.05;;;3.80;;
79533;SDS011;68982;52.160;6.736;2023-05-10T01:55:23;4.90;;;3.58;;
79533;SDS011;68982;52.160;6.736;2023-05-10T01:57:52;6.45;;;4.40;;
79533;SDS011;68982;52.160;6.736;2023-05-10T02:00:23;5.00;;;3.45;;
79533;SDS011;68982;52.160;6.736;2023-05-10T02:02:50;4.85;;;3.58;;
79533;SDS011;68982;52.160;6.736;2023-05-10T02:05:16;6.32;;;4.22;;
79533;SDS011;68982;52.160;6.736;2023-05-10T02:07:43;6.15;;;3.67;;
79533;SDS011;68982;52.160;6.736;2023-05-10T02:10:10;6.65;;;4.63;;
79533;SDS011;68982;52.160;6.736;2023-05-10T02:12:37;8.05;;;4.55;;
79533;SDS011;68982;52.160;6.736;2023-05-10T02:15:06;6.80;;;4.63;;
79533;SDS011;68982;52.160;6.736;2023-05-10T02:17:34;7.82;;;4.75;;
79533;SDS011;68982;52.160;6.736;2023-05-10T02:20:02;7.63;;;4.88;;
79533;SDS011;68982;52.160;6.736;2023-05-10T02:22:29;6.32;;;4.28;;
79533;SDS011;68982;52.160;6.736;2023-05-10T02:24:56;4.57;;;3.10;;
79533;SDS011;68982;52.160;6.736;2023-05-10T02:27:24;7.13;;;4.05;;
79533;SDS011;68982;52.160;6.736;2023-05-10T02:29:52;7.38;;;4.78;;
79533;SDS011;68982;52.160;6.736;2023-05-10T02:32:18;7.00;;;4.70;;
79533;SDS011;68982;52.160;6.736;2023-05-10T02:34:44;9.60;;;5.28;;
79533;SDS011;68982;52.160;6.736;2023-05-10T02:37:14;9.15;;;5.55;;
79533;SDS011;68982;52.160;6.736;2023-05-10T02:39:41;8.38;;;5.57;;
79533;SDS011;68982;52.160;6.736;2023-05-10T02:42:14;7.63;;;5.28;;
79533;SDS011;68982;52.160;6.736;2023-05-10T02:44:43;8.45;;;5.65;;
79533;SDS011;68982;52.160;6.736;2023-05-10T02:47:10;9.57;;;6.25;;
79533;SDS011;68982;52.160;6.736;2023-05-10T02:49:36;11.00;;;6.63;;
79533;SDS011;68982;52.160;6.736;2023-05-10T02:52:01;9.85;;;6.10;;
79533;SDS011;68982;52.160;6.736;2023-05-10T02:54:33;10.45;;;6.22;;
79533;SDS011;68982;52.160;6.736;2023-05-10T02:57:04;12.70;;;6.97;;
79533;SDS011;68982;52.160;6.736;2023-05-10T02:59:32;11.50;;;6.47;;
79533;SDS011;68982;52.160;6.736;2023-05-10T03:01:58;10.40;;;6.57;;
79533;SDS011;68982;52.160;6.736;2023-05-10T03:04:25;11.30;;;6.35;;
79533;SDS011;68982;52.160;6.736;2023-05-10T03:06:50;11.73;;;6.67;;
79533;SDS011;68982;52.160;6.736;2023-05-10T03:09:15;9.82;;;5.90;;
79533;SDS011;68982;52.160;6.736;2023-05-10T03:11:49;14.60;;;8.82;;
79533;SDS011;68982;52.160;6.736;2023-05-10T03:17:15;13.90;;;7.55;;
79533;SDS011;68982;52.160;6.736;2023-05-10T03:19:55;12.50;;;7.40;;
79533;SDS011;68982;52.160;6.736;2023-05-10T03:22:24;15.05;;;8.18;;
79533;SDS011;68982;52.160;6.736;2023-05-10T03:24:53;15.40;;;8.23;;
79533;SDS011;68982;52.160;6.736;2023-05-10T03:27:22;14.63;;;8.50;;
79533;SDS011;68982;52.160;6.736;2023-05-10T03:29:50;13.77;;;7.95;;
79533;SDS011;68982;52.160;6.736;2023-05-10T03:32:16;18.85;;;10.02;;
79533;SDS011;68982;52.160;6.736;2023-05-10T03:34:41;18.38;;;8.40;;
79533;SDS011;68982;52.160;6.736;2023-05-10T03:37:10;16.35;;;8.35;;
79533;SDS011;68982;52.160;6.736;2023-05-10T03:39:35;12.77;;;7.40;;
79533;SDS011;68982;52.160;6.736;2023-05-10T03:42:00;17.77;;;10.32;;
79533;SDS011;68982;52.160;6.736;2023-05-10T03:44:26;12.97;;;8.17;;
79533;SDS011;68982;52.160;6.736;2023-05-10T03:46:51;17.07;;;9.17;;
79533;SDS011;68982;52.160;6.736;2023-05-10T03:49:16;17.58;;;8.32;;
79533;SDS011;68982;52.160;6.736;2023-05-10T03:51:42;18.27;;;10.73;;
79533;SDS011;68982;52.160;6.736;2023-05-10T03:54:07;21.17;;;9.43;;
79533;SDS011;68982;52.160;6.736;2023-05-10T03:56:32;19.33;;;10.02;;
79533;SDS011;68982;52.160;6.736;2023-05-10T03:58:58;15.90;;;8.83;;
79533;SDS011;68982;52.160;6.736;2023-05-10T04:01:23;24.25;;;12.55;;
79533;SDS011;68982;52.160;6.736;2023-05-10T04:03:48;24.08;;;12.27;;
79533;SDS011;68982;52.160;6.736;2023-05-10T04:06:14;23.03;;;12.00;;
79533;SDS011;68982;52.160;6.736;2023-05-10T04:08:39;21.85;;;11.73;;
79533;SDS011;68982;52.160;6.736;2023-05-10T04:11:05;21.80;;;11.57;;
79533;SDS011;68982;52.160;6.736;2023-05-10T04:13:37;22.58;;;11.50;;
79533;SDS011;68982;52.160;6.736;2023-05-10T04:16:03;26.52;;;12.43;;
79533;SDS011;68982;52.160;6.736;2023-05-10T04:18:29;25.98;;;11.27;;
79533;SDS011;68982;52.160;6.736;2023-05-10T04:20:55;24.27;;;10.70;;
79533;SDS011;68982;52.160;6.736;2023-05-10T04:23:20;25.45;;;12.48;;
79533;SDS011;68982;52.160;6.736;2023-05-10T04:25:45;24.42;;;12.00;;
79533;SDS011;68982;52.160;6.736;2023-05-10T04:28:11;23.97;;;11.97;;
79533;SDS011;68982;52.160;6.736;2023-05-10T04:30:36;28.13;;;13.18;;
79533;SDS011;68982;52.160;6.736;2023-05-10T04:33:02;27.87;;;12.67;;
79533;SDS011;68982;52.160;6.736;2023-05-10T04:35:27;28.17;;;12.75;;
79533;SDS011;68982;52.160;6.736;2023-05-10T04:37:53;29.08;;;13.55;;
79533;SDS011;68982;52.160;6.736;2023-05-10T04:40:19;33.20;;;15.25;;
79533;SDS011;68982;52.160;6.736;2023-05-10T04:42:45;29.13;;;14.57;;
79533;SDS011;68982;52.160;6.736;2023-05-10T04:45:10;29.38;;;13.25;;
79533;SDS011;68982;52.160;6.736;2023-05-10T04:47:36;33.33;;;15.05;;
79533;SDS011;68982;52.160;6.736;2023-05-10T04:50:02;30.00;;;13.43;;
79533;SDS011;68982;52.160;6.736;2023-05-10T04:52:28;28.85;;;13.65;;
79533;SDS011;68982;52.160;6.736;2023-05-10T04:54:53;29.60;;;14.70;;
79533;SDS011;68982;52.160;6.736;2023-05-10T04:57:19;25.85;;;12.23;;
79533;SDS011;68982;52.160;6.736;2023-05-10T04:59:44;32.90;;;15.33;;
79533;SDS011;68982;52.160;6.736;2023-05-10T05:02:10;29.50;;;14.27;;
79533;SDS011;68982;52.160;6.736;2023-05-10T05:04:35;29.40;;;14.57;;
79533;SDS011;68982;52.160;6.736;2023-05-10T05:07:00;28.15;;;13.60;;
79533;SDS011;68982;52.160;6.736;2023-05-10T05:09:26;33.00;;;15.33;;
79533;SDS011;68982;52.160;6.736;2023-05-10T05:11:51;40.83;;;17.40;;
79533;SDS011;68982;52.160;6.736;2023-05-10T05:14:16;39.30;;;17.47;;
79533;SDS011;68982;52.160;6.736;2023-05-10T05:16:41;35.60;;;16.37;;
79533;SDS011;68982;52.160;6.736;2023-05-10T05:19:07;36.05;;;17.08;;
79533;SDS011;68982;52.160;6.736;2023-05-10T05:21:32;34.83;;;16.93;;
79533;SDS011;68982;52.160;6.736;2023-05-10T05:23:57;30.65;;;14.98;;
79533;SDS011;68982;52.160;6.736;2023-05-10T05:26:23;38.70;;;16.38;;
79533;SDS011;68982;52.160;6.736;2023-05-10T05:28:48;39.67;;;17.98;;
79533;SDS011;68982;52.160;6.736;2023-05-10T05:31:16;43.28;;;18.20;;
79533;SDS011;68982;52.160;6.736;2023-05-10T05:33:42;44.22;;;18.05;;
79533;SDS011;68982;52.160;6.736;2023-05-10T05:36:08;42.63;;;18.48;;
79533;SDS011;68982;52.160;6.736;2023-05-10T05:38:34;41.58;;;18.65;;
79533;SDS011;68982;52.160;6.736;2023-05-10T05:40:59;38.70;;;17.10;;
79533;SDS011;68982;52.160;6.736;2023-05-10T05:43:25;40.55;;;18.02;;
79533;SDS011;68982;52.160;6.736;2023-05-10T05:45:51;44.55;;;18.23;;
79533;SDS011;68982;52.160;6.736;2023-05-10T05:48:18;39.13;;;17.85;;
79533;SDS011;68982;52.160;6.736;2023-05-10T05:50:44;36.83;;;17.02;;
79533;SDS011;68982;52.160;6.736;2023-05-10T05:53:10;38.17;;;17.98;;
79533;SDS011;68982;52.160;6.736;2023-05-10T05:55:35;41.35;;;18.17;;
79533;SDS011;68982;52.160;6.736;2023-05-10T05:58:01;41.60;;;18.70;;
79533;SDS011;68982;52.160;6.736;2023-05-10T06:00:26;41.17;;;18.55;;
79533;SDS011;68982;52.160;6.736;2023-05-10T06:02:52;37.60;;;16.98;;
79533;SDS011;68982;52.160;6.736;2023-05-10T06:05:17;37.72;;;16.65;;
79533;SDS011;68982;52.160;6.736;2023-05-10T06:07:42;35.70;;;17.02;;
79533;SDS011;68982;52.160;6.736;2023-05-10T06:10:08;41.45;;;18.33;;
79533;SDS011;68982;52.160;6.736;2023-05-10T06:12:34;42.88;;;18.05;;
79533;SDS011;68982;52.160;6.736;2023-05-10T06:15:00;40.17;;;18.42;;
79533;SDS011;68982;52.160;6.736;2023-05-10T06:17:25;43.15;;;18.35;;
79533;SDS011;68982;52.160;6.736;2023-05-10T06:19:51;36.95;;;16.88;;
79533;SDS011;68982;52.160;6.736;2023-05-10T06:22:16;40.97;;;17.27;;
79533;SDS011;68982;52.160;6.736;2023-05-10T06:24:42;37.00;;;17.65;;
79533;SDS011;68982;52.160;6.736;2023-05-10T06:27:08;41.00;;;17.90;;
79533;SDS011;68982;52.160;6.736;2023-05-10T06:29:33;44.65;;;18.83;;
79533;SDS011;68982;52.160;6.736;2023-05-10T06:31:59;37.77;;;16.37;;
79533;SDS011;68982;52.160;6.736;2023-05-10T06:34:24;38.90;;;17.33;;
79533;SDS011;68982;52.160;6.736;2023-05-10T06:36:49;40.67;;;17.88;;
79533;SDS011;68982;52.160;6.736;2023-05-10T06:39:15;40.97;;;18.73;;
79533;SDS011;68982;52.160;6.736;2023-05-10T06:41:41;39.70;;;17.77;;
79533;SDS011;68982;52.160;6.736;2023-05-10T06:44:06;46.35;;;20.50;;
79533;SDS011;68982;52.160;6.736;2023-05-10T06:46:32;39.95;;;18.77;;
79533;SDS011;68982;52.160;6.736;2023-05-10T06:48:57;42.40;;;17.70;;
79533;SDS011;68982;52.160;6.736;2023-05-10T06:51:22;42.57;;;18.13;;
79533;SDS011;68982;52.160;6.736;2023-05-10T06:53:48;41.10;;;17.07;;
79533;SDS011;68982;52.160;6.736;2023-05-10T06:56:13;38.03;;;17.30;;
79533;SDS011;68982;52.160;6.736;2023-05-10T06:58:39;42.85;;;19.80;;
79533;SDS011;68982;52.160;6.736;2023-05-10T07:01:04;40.88;;;18.45;;
79533;SDS011;68982;52.160;6.736;2023-05-10T07:03:30;43.58;;;19.00;;
79533;SDS011;68982;52.160;6.736;2023-05-10T07:06:03;40.72;;;18.30;;
79533;SDS011;68982;52.160;6.736;2023-05-10T07:08:32;39.10;;;18.23;;
79533;SDS011;68982;52.160;6.736;2023-05-10T07:11:04;38.42;;;17.55;;
79533;SDS011;68982;52.160;6.736;2023-05-10T07:13:32;47.03;;;19.77;;
79533;SDS011;68982;52.160;6.736;2023-05-10T07:15:57;44.22;;;18.42;;
79533;SDS011;68982;52.160;6.736;2023-05-10T07:18:24;41.03;;;18.35;;
79533;SDS011;68982;52.160;6.736;2023-05-10T07:20:49;39.83;;;17.27;;
79533;SDS011;68982;52.160;6.736;2023-05-10T07:23:15;37.03;;;16.55;;
79533;SDS011;68982;52.160;6.736;2023-05-10T07:25:40;39.35;;;18.65;;
79533;SDS011;68982;52.160;6.736;2023-05-10T07:28:05;39.73;;;17.23;;
79533;SDS011;68982;52.160;6.736;2023-05-10T07:30:31;32.95;;;16.10;;
79533;SDS011;68982;52.160;6.736;2023-05-10T07:32:56;39.73;;;17.60;;
79533;SDS011;68982;52.160;6.736;2023-05-10T07:35:22;30.42;;;15.02;;
79533;SDS011;68982;52.160;6.736;2023-05-10T07:37:47;33.05;;;15.15;;
79533;SDS011;68982;52.160;6.736;2023-05-10T07:40:12;34.83;;;15.67;;
79533;SDS011;68982;52.160;6.736;2023-05-10T07:42:38;36.25;;;16.08;;
79533;SDS011;68982;52.160;6.736;2023-05-10T07:45:03;36.30;;;15.57;;
79533;SDS011;68982;52.160;6.736;2023-05-10T07:47:29;34.90;;;15.85;;
79533;SDS011;68982;52.160;6.736;2023-05-10T07:49:54;35.47;;;15.53;;
79533;SDS011;68982;52.160;6.736;2023-05-10T07:52:19;38.93;;;16.33;;
79533;SDS011;68982;52.160;6.736;2023-05-10T07:54:45;37.90;;;15.90;;
79533;SDS011;68982;52.160;6.736;2023-05-10T07:57:10;36.40;;;16.67;;
79533;SDS011;68982;52.160;6.736;2023-05-10T07:59:36;35.08;;;15.75;;
79533;SDS011;68982;52.160;6.736;2023-05-10T08:02:01;32.13;;;15.70;;
79533;SDS011;68982;52.160;6.736;2023-05-10T08:04:27;37.13;;;15.50;;
79533;SDS011;68982;52.160;6.736;2023-05-10T08:06:52;30.77;;;15.13;;
79533;SDS011;68982;52.160;6.736;2023-05-10T08:09:17;31.55;;;14.38;;
79533;SDS011;68982;52.160;6.736;2023-05-10T08:11:43;31.83;;;14.47;;
79533;SDS011;68982;52.160;6.736;2023-05-10T08:14:08;30.73;;;15.07;;
79533;SDS011;68982;52.160;6.736;2023-05-10T08:16:33;31.77;;;15.10;;
79533;SDS011;68982;52.160;6.736;2023-05-10T08:18:59;33.97;;;15.15;;
79533;SDS011;68982;52.160;6.736;2023-05-10T08:21:24;35.50;;;15.50;;
79533;SDS011;68982;52.160;6.736;2023-05-10T08:23:50;37.45;;;16.48;;
79533;SDS011;68982;52.160;6.736;2023-05-10T08:26:16;28.98;;;14.23;;
79533;SDS011;68982;52.160;6.736;2023-05-10T08:28:41;32.38;;;14.40;;
79533;SDS011;68982;52.160;6.736;2023-05-10T08:31:07;30.75;;;14.18;;
79533;SDS011;68982;52.160;6.736;2023-05-10T08:33:32;38.17;;;15.70;;
79533;SDS011;68982;52.160;6.736;2023-05-10T08:35:57;35.22;;;15.15;;
79533;SDS011;68982;52.160;6.736;2023-05-10T08:38:23;33.83;;;14.13;;
79533;SDS011;68982;52.160;6.736;2023-05-10T08:40:48;35.22;;;14.77;;
79533;SDS011;68982;52.160;6.736;2023-05-10T08:43:15;31.75;;;14.60;;
79533;SDS011;68982;52.160;6.736;2023-05-10T08:45:42;38.75;;;16.13;;
79533;SDS011;68982;52.160;6.736;2023-05-10T08:48:10;32.42;;;15.45;;
79533;SDS011;68982;52.160;6.736;2023-05-10T08:50:39;32.25;;;15.43;;
79533;SDS011;68982;52.160;6.736;2023-05-10T08:53:06;34.75;;;15.38;;
79533;SDS011;68982;52.160;6.736;2023-05-10T08:55:35;36.63;;;15.23;;
79533;SDS011;68982;52.160;6.736;2023-05-10T08:58:03;34.60;;;15.68;;
79533;SDS011;68982;52.160;6.736;2023-05-10T09:00:29;33.47;;;14.68;;
79533;SDS011;68982;52.160;6.736;2023-05-10T09:02:55;35.55;;;15.35;;
79533;SDS011;68982;52.160;6.736;2023-05-10T09:05:22;38.35;;;15.13;;
79533;SDS011;68982;52.160;6.736;2023-05-10T09:07:48;29.75;;;14.80;;
79533;SDS011;68982;52.160;6.736;2023-05-10T09:10:13;36.70;;;15.90;;
79533;SDS011;68982;52.160;6.736;2023-05-10T09:12:40;39.75;;;16.92;;
79533;SDS011;68982;52.160;6.736;2023-05-10T09:15:06;33.75;;;14.82;;
79533;SDS011;68982;52.160;6.736;2023-05-10T09:17:34;29.77;;;13.45;;
79533;SDS011;68982;52.160;6.736;2023-05-10T09:19:59;40.00;;;15.82;;
79533;SDS011;68982;52.160;6.736;2023-05-10T09:22:26;38.28;;;15.23;;
79533;SDS011;68982;52.160;6.736;2023-05-10T09:25:08;36.13;;;14.52;;
79533;SDS011;68982;52.160;6.736;2023-05-10T09:27:36;33.58;;;14.57;;
79533;SDS011;68982;52.160;6.736;2023-05-10T09:30:03;32.13;;;14.23;;
79533;SDS011;68982;52.160;6.736;2023-05-10T09:32:39;38.20;;;16.58;;
79533;SDS011;68982;52.160;6.736;2023-05-10T09:35:07;35.15;;;14.30;;
79533;SDS011;68982;52.160;6.736;2023-05-10T09:37:36;39.25;;;15.52;;
79533;SDS011;68982;52.160;6.736;2023-05-10T09:40:04;38.97;;;15.82;;
79533;SDS011;68982;52.160;6.736;2023-05-10T09:42:31;38.55;;;15.18;;
79533;SDS011;68982;52.160;6.736;2023-05-10T09:45:00;38.13;;;14.93;;
79533;SDS011;68982;52.160;6.736;2023-05-10T09:47:28;35.13;;;14.77;;
79533;SDS011;68982;52.160;6.736;2023-05-10T09:49:55;37.25;;;14.98;;
79533;SDS011;68982;52.160;6.736;2023-05-10T09:52:27;46.35;;;14.55;;
79533;SDS011;68982;52.160;6.736;2023-05-10T09:54:53;29.45;;;12.35;;
79533;SDS011;68982;52.160;6.736;2023-05-10T09:57:23;34.92;;;13.98;;
79533;SDS011;68982;52.160;6.736;2023-05-10T09:59:49;32.58;;;12.70;;
79533;SDS011;68982;52.160;6.736;2023-05-10T10:02:15;39.53;;;14.88;;
79533;SDS011;68982;52.160;6.736;2023-05-10T10:04:41;36.80;;;14.10;;
79533;SDS011;68982;52.160;6.736;2023-05-10T10:07:07;29.02;;;12.18;;
79533;SDS011;68982;52.160;6.736;2023-05-10T10:09:33;28.35;;;12.20;;
79533;SDS011;68982;52.160;6.736;2023-05-10T10:12:00;28.15;;;11.77;;
79533;SDS011;68982;52.160;6.736;2023-05-10T10:14:27;27.13;;;11.57;;
79533;SDS011;68982;52.160;6.736;2023-05-10T10:16:52;26.98;;;11.77;;
79533;SDS011;68982;52.160;6.736;2023-05-10T10:19:18;27.52;;;12.82;;
79533;SDS011;68982;52.160;6.736;2023-05-10T10:21:45;26.17;;;11.82;;
79533;SDS011;68982;52.160;6.736;2023-05-10T10:24:11;22.08;;;10.07;;
79533;SDS011;68982;52.160;6.736;2023-05-10T10:26:36;27.52;;;12.07;;
79533;SDS011;68982;52.160;6.736;2023-05-10T10:29:21;22.33;;;10.77;;
79533;SDS011;68982;52.160;6.736;2023-05-10T10:31:56;25.90;;;11.73;;
79533;SDS011;68982;52.160;6.736;2023-05-10T10:34:35;21.33;;;10.73;;
79533;SDS011;68982;52.160;6.736;2023-05-10T10:37:05;26.10;;;11.65;;
79533;SDS011;68982;52.160;6.736;2023-05-10T10:39:31;26.25;;;11.73;;
79533;SDS011;68982;52.160;6.736;2023-05-10T10:41:57;22.40;;;11.27;;
79533;SDS011;68982;52.160;6.736;2023-05-10T10:49:23;25.85;;;12.23;;
79533;SDS011;68982;52.160;6.736;2023-05-10T10:55:00;23.60;;;11.80;;
79533;SDS011;68982;52.160;6.736;2023-05-10T10:57:27;25.42;;;11.38;;
79533;SDS011;68982;52.160;6.736;2023-05-10T11:03:19;21.27;;;10.82;;
79533;SDS011;68982;52.160;6.736;2023-05-10T11:05:46;20.55;;;10.35;;
79533;SDS011;68982;52.160;6.736;2023-05-10T11:10:51;20.67;;;10.60;;
79533;SDS011;68982;52.160;6.736;2023-05-10T11:13:37;22.10;;;11.35;;
79533;SDS011;68982;52.160;6.736;2023-05-10T11:16:11;19.90;;;10.55;;
79533;SDS011;68982;52.160;6.736;2023-05-10T11:18:39;20.88;;;10.57;;
79533;SDS011;68982;52.160;6.736;2023-05-10T11:21:07;21.42;;;10.80;;
79533;SDS011;68982;52.160;6.736;2023-05-10T11:26:14;18.33;;;9.57;;
79533;SDS011;68982;52.160;6.736;2023-05-10T11:28:43;20.77;;;10.73;;
79533;SDS011;68982;52.160;6.736;2023-05-10T11:31:10;20.35;;;10.68;;
79533;SDS011;68982;52.160;6.736;2023-05-10T11:33:44;20.55;;;9.55;;
79533;SDS011;68982;52.160;6.736;2023-05-10T11:36:15;18.92;;;9.80;;
79533;SDS011;68982;52.160;6.736;2023-05-10T11:38:43;18.50;;;9.70;;
79533;SDS011;68982;52.160;6.736;2023-05-10T11:41:09;19.23;;;9.35;;
79533;SDS011;68982;52.160;6.736;2023-05-10T11:43:36;18.40;;;9.07;;
79533;SDS011;68982;52.160;6.736;2023-05-10T11:46:03;17.83;;;9.40;;
79533;SDS011;68982;52.160;6.736;2023-05-10T11:50:56;18.13;;;9.00;;
79533;SDS011;68982;52.160;6.736;2023-05-10T11:53:22;18.00;;;9.02;;
79533;SDS011;68982;52.160;6.736;2023-05-10T11:55:50;16.33;;;8.73;;
79533;SDS011;68982;52.160;6.736;2023-05-10T11:58:17;16.52;;;7.93;;
79533;SDS011;68982;52.160;6.736;2023-05-10T12:00:43;18.98;;;10.02;;
79533;SDS011;68982;52.160;6.736;2023-05-10T12:03:09;20.08;;;9.55;;
79533;SDS011;68982;52.160;6.736;2023-05-10T12:05:35;17.45;;;9.55;;
79533;SDS011;68982;52.160;6.736;2023-05-10T12:08:10;19.17;;;9.45;;
79533;SDS011;68982;52.160;6.736;2023-05-10T12:10:40;18.40;;;8.85;;
79533;SDS011;68982;52.160;6.736;2023-05-10T12:13:10;21.00;;;9.65;;
79533;SDS011;68982;52.160;6.736;2023-05-10T12:15:37;16.65;;;9.07;;
79533;SDS011;68982;52.160;6.736;2023-05-10T12:18:03;17.25;;;8.93;;
79533;SDS011;68982;52.160;6.736;2023-05-10T12:20:28;16.90;;;8.73;;
79533;SDS011;68982;52.160;6.736;2023-05-10T12:22:55;19.73;;;8.85;;
79533;SDS011;68982;52.160;6.736;2023-05-10T12:25:22;16.58;;;9.18;;
79533;SDS011;68982;52.160;6.736;2023-05-10T12:30:18;17.77;;;9.10;;
79533;SDS011;68982;52.160;6.736;2023-05-10T12:32:45;17.38;;;8.52;;
79533;SDS011;68982;52.160;6.736;2023-05-10T12:35:10;17.43;;;9.07;;
79533;SDS011;68982;52.160;6.736;2023-05-10T12:37:36;18.10;;;9.80;;
79533;SDS011;68982;52.160;6.736;2023-05-10T12:40:07;15.85;;;8.52;;
79533;SDS011;68982;52.160;6.736;2023-05-10T12:42:34;17.92;;;9.68;;
79533;SDS011;68982;52.160;6.736;2023-05-10T12:45:00;16.27;;;8.82;;
79533;SDS011;68982;52.160;6.736;2023-05-10T12:47:26;20.15;;;9.18;;
79533;SDS011;68982;52.160;6.736;2023-05-10T12:49:51;19.52;;;9.73;;
79533;SDS011;68982;52.160;6.736;2023-05-10T12:52:17;16.98;;;9.45;;
79533;SDS011;68982;52.160;6.736;2023-05-10T12:54:42;19.40;;;8.77;;
79533;SDS011;68982;52.160;6.736;2023-05-10T12:57:07;15.75;;;8.52;;
79533;SDS011;68982;52.160;6.736;2023-05-10T12:59:32;16.97;;;8.93;;
79533;SDS011;68982;52.160;6.736;2023-05-10T13:01:58;14.13;;;8.63;;
79533;SDS011;68982;52.160;6.736;2023-05-10T13:04:23;14.80;;;8.20;;
79533;SDS011;68982;52.160;6.736;2023-05-10T13:06:49;14.25;;;8.05;;
79533;SDS011;68982;52.160;6.736;2023-05-10T13:09:14;14.87;;;8.13;;
79533;SDS011;68982;52.160;6.736;2023-05-10T13:11:40;14.20;;;7.53;;
79533;SDS011;68982;52.160;6.736;2023-05-10T13:14:05;16.83;;;8.05;;
79533;SDS011;68982;52.160;6.736;2023-05-10T13:16:31;13.37;;;7.83;;
79533;SDS011;68982;52.160;6.736;2023-05-10T13:18:56;15.32;;;8.57;;
79533;SDS011;68982;52.160;6.736;2023-05-10T13:21:21;13.18;;;7.18;;
79533;SDS011;68982;52.160;6.736;2023-05-10T13:23:49;14.15;;;7.80;;
79533;SDS011;68982;52.160;6.736;2023-05-10T13:26:14;13.23;;;7.43;;
79533;SDS011;68982;52.160;6.736;2023-05-10T13:28:40;14.57;;;8.48;;
79533;SDS011;68982;52.160;6.736;2023-05-10T13:31:05;12.15;;;6.65;;
79533;SDS011;68982;52.160;6.736;2023-05-10T13:33:30;15.10;;;7.60;;
79533;SDS011;68982;52.160;6.736;2023-05-10T13:35:56;12.40;;;7.30;;
79533;SDS011;68982;52.160;6.736;2023-05-10T13:38:21;12.60;;;7.33;;
79533;SDS011;68982;52.160;6.736;2023-05-10T13:40:46;13.77;;;7.00;;
79533;SDS011;68982;52.160;6.736;2023-05-10T13:43:12;11.75;;;6.50;;
79533;SDS011;68982;52.160;6.736;2023-05-10T13:45:37;12.05;;;6.50;;
79533;SDS011;68982;52.160;6.736;2023-05-10T13:48:03;12.80;;;7.15;;
79533;SDS011;68982;52.160;6.736;2023-05-10T13:50:29;12.15;;;6.63;;
79533;SDS011;68982;52.160;6.736;2023-05-10T13:52:55;13.65;;;7.18;;
79533;SDS011;68982;52.160;6.736;2023-05-10T13:55:20;11.32;;;6.22;;
79533;SDS011;68982;52.160;6.736;2023-05-10T13:57:45;14.13;;;6.88;;
79533;SDS011;68982;52.160;6.736;2023-05-10T14:00:11;11.27;;;6.53;;
79533;SDS011;68982;52.160;6.736;2023-05-10T14:02:37;11.75;;;6.97;;
79533;SDS011;68982;52.160;6.736;2023-05-10T14:05:02;12.98;;;6.55;;
79533;SDS011;68982;52.160;6.736;2023-05-10T14:07:28;11.68;;;6.65;;
79533;SDS011;68982;52.160;6.736;2023-05-10T14:09:53;12.50;;;6.83;;
79533;SDS011;68982;52.160;6.736;2023-05-10T14:12:18;11.93;;;6.17;;
79533;SDS011;68982;52.160;6.736;2023-05-10T14:14:44;9.93;;;6.23;;
79533;SDS011;68982;52.160;6.736;2023-05-10T14:17:10;12.05;;;6.13;;
79533;SDS011;68982;52.160;6.736;2023-05-10T14:19:35;9.52;;;5.72;;
79533;SDS011;68982;52.160;6.736;2023-05-10T14:22:00;7.93;;;5.17;;
79533;SDS011;68982;52.160;6.736;2023-05-10T14:24:26;7.65;;;4.55;;
79533;SDS011;68982;52.160;6.736;2023-05-10T14:26:52;10.02;;;4.68;;
79533;SDS011;68982;52.160;6.736;2023-05-10T14:29:20;12.73;;;4.80;;
79533;SDS011;68982;52.160;6.736;2023-05-10T14:31:46;6.88;;;4.38;;
79533;SDS011;68982;52.160;6.736;2023-05-10T14:34:12;8.55;;;5.00;;
79533;SDS011;68982;52.160;6.736;2023-05-10T14:36:37;8.13;;;4.57;;
79533;SDS011;68982;52.160;6.736;2023-05-10T14:39:03;7.72;;;4.90;;
79533;SDS011;68982;52.160;6.736;2023-05-10T14:41:28;7.35;;;4.13;;
79533;SDS011;68982;52.160;6.736;2023-05-10T14:43:55;6.40;;;4.05;;
79533;SDS011;68982;52.160;6.736;2023-05-10T14:46:20;7.00;;;4.13;;
79533;SDS011;68982;52.160;6.736;2023-05-10T14:48:46;6.72;;;4.05;;
79533;SDS011;68982;52.160;6.736;2023-05-10T14:51:11;6.00;;;3.80;;
79533;SDS011;68982;52.160;6.736;2023-05-10T14:53:37;8.88;;;4.32;;
79533;SDS011;68982;52.160;6.736;2023-05-10T14:56:02;5.75;;;3.80;;
79533;SDS011;68982;52.160;6.736;2023-05-10T14:58:28;9.52;;;4.03;;
79533;SDS011;68982;52.160;6.736;2023-05-10T15:00:53;5.80;;;3.80;;